Sanctuary — WDI2390 — position and weather

sailwx.info

Track history (hours):
 
Tides and Currents Weather Stations Pressure Air Temp Water Temp Dewpoint Dewpoint Depression Visibility Wind Speed Wind Dir Waves Ship Positions

Sanctuary

Owner: Boston Harbor Cruises, Boston, MA. More information available from US FCC via Universal Licensing System and Coast Guard Vessel Documentation Center.

Last reported at 2018-Feb-22 00:17 UTC. Time now 2018-Feb-22 05:29 UTC.
Position N 42°15' W 070°55'.

Length 35 m; draft 2.9 m.

Type: High speed craft. MMSI: 367677570.

Date/timePositionNaut miles runAvg speedWind from/ knotsBaromVisibWave heightAir tempDewpointWater temp
2018-Feb-22 00:17N 42°15' W 070°55'0 1.1
2018-Feb-21 23:56N 42°16' W 070°55'816.2
2018-Feb-21 23:26N 42°21' W 071°03'612.3
2018-Feb-21 22:59N 42°19' W 070°56'4 7.8
2018-Feb-21 22:30N 42°15' W 070°55'816.9
2018-Feb-21 22:00N 42°21' W 071°03'1 2.9
2018-Feb-21 21:30N 42°21' W 071°01'7 9.8
2018-Feb-21 20:50N 42°16' W 070°55'821.2
2018-Feb-21 20:27N 42°21' W 071°03'0 0.0
2018-Feb-21 20:00N 42°21' W 071°03'8 8.3
2018-Feb-21 19:01N 42°15' W 070°55'816.7
2018-Feb-21 18:32N 42°21' W 071°03'0 0.2
2018-Feb-21 18:05N 42°21' W 071°03'0 0.1
2018-Feb-21 14:22N 42°22' W 071°03'0 0.8
2018-Feb-21 13:49N 42°22' W 071°02'0 1.0
2018-Feb-21 13:29N 42°21' W 071°02'5 5.6
2018-Feb-21 12:33N 42°19' W 070°56'132.7
2018-Feb-21 12:30N 42°20' W 070°57'4 8.2
2018-Feb-21 11:58N 42°21' W 071°02'6 0.5
2018-Feb-20 23:49N 42°17' W 070°57'612.9
2018-Feb-20 23:21N 42°21' W 071°03'811.4
2018-Feb-20 22:37N 42°15' W 070°55'2 6.6
2018-Feb-20 22:20N 42°17' W 070°56'7 9.7
2018-Feb-20 21:40N 42°21' W 071°03'213.6
2018-Feb-20 21:30N 42°20' W 071°00'611.0
2018-Feb-20 20:55N 42°15' W 070°55'817.2
2018-Feb-20 20:26N 42°21' W 071°03'0 0.4
2018-Feb-20 20:00N 42°21' W 071°03'3 2.6
2018-Feb-20 18:42N 42°20' W 070°59'3 5.4
2018-Feb-20 18:05N 42°21' W 071°03'0 5.1
2018-Feb-20 18:00N 42°22' W 071°03'0 0.4
2018-Feb-20 17:30N 42°22' W 071°03'0 0.0
2018-Feb-20 16:59N 42°22' W 071°03'0 0.0
2018-Feb-20 16:27N 42°22' W 071°03'0 0.0
2018-Feb-20 15:56N 42°22' W 071°03'0 0.0
2018-Feb-20 15:30N 42°22' W 071°03'0 0.0
2018-Feb-20 15:00N 42°22' W 071°03'0 0.0
2018-Feb-20 14:30N 42°22' W 071°03'0 0.0
2018-Feb-20 13:58N 42°22' W 071°03'0 0.9
2018-Feb-20 13:30N 42°21' W 071°03'6 6.2
2018-Feb-20 12:33N 42°17' W 070°57'326.4
2018-Feb-20 12:26N 42°20' W 070°60'3 6.6
2018-Feb-20 12:00N 42°21' W 071°03'814.7
2018-Feb-20 11:26N 42°15' W 070°55'0 0.0
2018-Feb-20 00:09N 42°15' W 070°55'3 8.7
2018-Feb-19 23:47N 42°18' W 070°58'518.4
2018-Feb-19 23:30N 42°21' W 071°03'5 9.8
2018-Feb-19 22:57N 42°18' W 070°58'3 6.1
2018-Feb-19 22:29N 42°16' W 070°55'817.4
2018-Feb-19 22:00N 42°21' W 071°03'6 9.2
2018-Feb-19 21:22N 42°17' W 070°57'1 2.1
2018-Feb-19 20:49N 42°17' W 070°56'619.4
2018-Feb-19 20:30N 42°21' W 071°02'2 0.4
2018-Feb-19 14:37N 42°20' W 071°00'217.2
2018-Feb-19 14:29N 42°22' W 071°03'0 0.8
2018-Feb-19 14:00N 42°22' W 071°02'0 0.9
2018-Feb-19 13:30N 42°21' W 071°02'812.7
2018-Feb-19 12:52N 42°15' W 070°55'514.4
2018-Feb-19 12:30N 42°19' W 070°60'3 6.1
2018-Feb-19 12:00N 42°21' W 071°03'815.2
2018-Feb-19 11:27N 42°15' W 070°55'0 0.8
2018-Feb-19 11:00N 42°16' W 070°55'  
2018-Feb-17 00:13N 42°15' W 070°55'0 1.2
2018-Feb-16 23:58N 42°16' W 070°55'817.7
2018-Feb-16 23:30N 42°21' W 071°03'712.2
2018-Feb-16 22:54N 42°16' W 070°56'2 2.9
2018-Feb-16 22:17N 42°18' W 070°55'622.1
2018-Feb-16 22:00N 42°21' W 071°03'5 9.4
2018-Feb-16 21:26N 42°19' W 070°56'4 8.1
2018-Feb-16 20:56N 42°15' W 070°55'818.2
2018-Feb-16 20:29N 42°21' W 071°02'0 0.4
2018-Feb-16 20:00N 42°22' W 071°03'0 0.7
2018-Feb-16 19:30N 42°22' W 071°03'0 0.0
2018-Feb-16 19:00N 42°22' W 071°03'0 0.0
2018-Feb-16 18:30N 42°22' W 071°03'0 0.0
2018-Feb-16 18:00N 42°22' W 071°03'0 0.0
2018-Feb-16 17:30N 42°22' W 071°03'0 0.0
2018-Feb-16 17:00N 42°22' W 071°03'0 0.9
2018-Feb-16 16:29N 42°21' W 071°03'813.8
2018-Feb-16 15:54N 42°15' W 070°55'0 0.0
2018-Feb-16 15:29N 42°15' W 070°55'817.4
2018-Feb-16 15:00N 42°21' W 071°03'4 8.2
2018-Feb-16 14:30N 42°19' W 070°59'4 6.8
2018-Feb-16 13:57N 42°16' W 070°55'817.2
2018-Feb-16 13:30N 42°21' W 071°03'816.9
2018-Feb-16 13:00N 42°15' W 070°55'812.1
2018-Feb-16 12:21N 42°21' W 071°02'1 1.6
2018-Feb-16 12:00N 42°21' W 071°03'8 0.7
2018-Feb-16 00:41N 42°15' W 070°58'2 9.6
2018-Feb-16 00:26N 42°15' W 070°55'0 0.3
2018-Feb-15 23:58N 42°15' W 070°55'817.0
2018-Feb-15 23:28N 42°21' W 071°03'4 9.0
2018-Feb-15 23:00N 42°19' W 070°59'4 6.7
2018-Feb-15 22:27N 42°16' W 070°55'817.9
2018-Feb-15 22:00N 42°21' W 071°03'5 7.7
2018-Feb-15 21:24N 42°18' W 070°58'4 8.6
2018-Feb-15 20:58N 42°15' W 070°55'817.6
2018-Feb-15 20:30N 42°21' W 071°02'0 0.2
2018-Feb-15 18:12N 42°22' W 071°02'0 0.2
2018-Feb-15 17:48N 42°22' W 071°02'1 2.4
2018-Feb-15 17:29N 42°21' W 071°03'0 0.1
2018-Feb-15 16:54N 42°21' W 071°03'0 0.5
2018-Feb-15 16:29N 42°21' W 071°03'6 5.2
2018-Feb-15 15:18N 42°18' W 070°55'618.6
2018-Feb-15 14:58N 42°21' W 071°03'0 0.5
2018-Feb-15 14:28N 42°22' W 071°03'1 1.1
2018-Feb-15 14:00N 42°22' W 071°02'0 0.8
2018-Feb-15 13:31N 42°21' W 071°02'7 7.3
2018-Feb-15 12:37N 42°17' W 070°56'426.2
2018-Feb-15 12:28N 42°20' W 070°60'3 6.1
2018-Feb-15 12:00N 42°21' W 071°03'810.3
2018-Feb-15 11:13N 42°15' W 070°55'0 0.0
2018-Feb-15 00:12N 42°15' W 070°55'0 1.0
2018-Feb-14 23:56N 42°16' W 070°55'817.0
2018-Feb-14 23:28N 42°21' W 071°03'612.7
2018-Feb-14 22:59N 42°19' W 070°56'3 5.0
2018-Feb-14 22:26N 42°16' W 070°55'818.3
2018-Feb-14 22:00N 42°21' W 071°03'3 6.3
2018-Feb-14 21:30N 42°20' W 070°59'5 8.4
2018-Feb-14 20:52N 42°16' W 070°55'819.1
2018-Feb-14 20:27N 42°21' W 071°03'8 4.3
2018-Feb-14 18:30N 42°15' W 070°55'0 0.0
2018-Feb-14 17:57N 42°15' W 070°55'8 6.3
2018-Feb-14 16:38N 42°21' W 071°03'0 1.1
2018-Feb-14 16:29N 42°21' W 071°03'0 0.3
2018-Feb-14 15:07N 42°21' W 071°02'1 2.3
2018-Feb-14 14:48N 42°21' W 071°03'5 5.8
2018-Feb-14 13:54N 42°18' W 070°58'511.4
2018-Feb-14 13:29N 42°21' W 071°02'813.9
2018-Feb-14 12:54N 42°15' W 070°55'511.7
2018-Feb-14 12:29N 42°20' W 070°57'4 9.1
2018-Feb-14 12:00N 42°21' W 071°03'810.2
2018-Feb-14 11:12N 42°15' W 070°55'1 3.5
2018-Feb-14 10:56N 42°16' W 070°56'1 0.1
2018-Feb-14 00:13N 42°15' W 070°55'1 3.1
2018-Feb-13 23:53N 42°16' W 070°56'719.7
2018-Feb-13 23:30N 42°21' W 071°03'711.6
2018-Feb-13 22:56N 42°18' W 070°55'2 4.5
2018-Feb-13 22:28N 42°16' W 070°55'812.2
2018-Feb-13 21:49N 42°21' W 071°03'511.9
2018-Feb-13 21:27N 42°20' W 070°57'2 2.1
2018-Feb-13 20:43N 42°19' W 070°56'624.4
2018-Feb-13 20:29N 42°21' W 071°03'0 0.5
2018-Feb-13 20:00N 42°22' W 071°03'0 0.0
2018-Feb-13 17:18N 42°22' W 071°03'0 0.7
2018-Feb-13 16:42N 42°22' W 071°02'0 1.4
2018-Feb-13 16:30N 42°21' W 071°02'2 1.2
2018-Feb-13 15:08N 42°21' W 071°00'2 5.1
2018-Feb-13 14:45N 42°21' W 071°03'6 7.0
2018-Feb-13 13:54N 42°18' W 070°56'615.1
2018-Feb-13 13:30N 42°21' W 071°03'8 9.2
2018-Feb-13 12:41N 42°16' W 070°55'524.2
2018-Feb-13 12:29N 42°20' W 070°58'3 6.9
2018-Feb-13 12:00N 42°21' W 071°02'815.9
2018-Feb-13 11:30N 42°15' W 070°55'1 1.2
2018-Feb-13 11:00N 42°16' W 070°55'1 0.1
2018-Feb-13 00:18N 42°15' W 070°55'0 0.0
2018-Feb-13 00:00N 42°15' W 070°55'814.4
2018-Feb-12 23:25N 42°21' W 071°03'714.3
2018-Feb-12 22:55N 42°17' W 070°56'1 2.7
2018-Feb-12 22:29N 42°16' W 070°55'816.8
2018-Feb-12 21:59N 42°21' W 071°03'5 9.5
2018-Feb-12 21:26N 42°19' W 070°56'4 7.9
2018-Feb-12 20:55N 42°15' W 070°55'818.3
2018-Feb-12 20:28N 42°21' W 071°03'0 0.3
2018-Feb-12 20:00N 42°21' W 071°03'0 0.6
2018-Feb-12 19:23N 42°22' W 071°03'0 0.0
2018-Feb-12 19:00N 42°22' W 071°03'0 0.0
2018-Feb-12 18:30N 42°22' W 071°03'0 0.0
2018-Feb-12 17:58N 42°22' W 071°03'0 0.0
2018-Feb-12 17:29N 42°22' W 071°03'0 0.0
2018-Feb-12 16:58N 42°22' W 071°03'1 1.4
2018-Feb-12 16:29N 42°21' W 071°02'8 8.4
2018-Feb-12 15:32N 42°15' W 070°55'818.3
2018-Feb-12 15:06N 42°21' W 071°02'1 6.7
2018-Feb-12 15:01N 42°21' W 071°03'0 0.3
2018-Feb-12 14:07N 42°22' W 071°03'0 0.1
2018-Feb-12 14:00N 42°22' W 071°03'0 0.9
2018-Feb-12 13:31N 42°21' W 071°02'6 6.1
2018-Feb-12 12:35N 42°17' W 070°57'327.9
2018-Feb-12 12:30N 42°20' W 070°57'4 8.5
2018-Feb-12 12:00N 42°21' W 071°02'  
Track history (hours):
 
Tides and Currents Weather Stations Pressure Air Temp Water Temp Dewpoint Dewpoint Depression Visibility Wind Speed Wind Dir Waves Ship Positions

Sanctuary

Owner: Boston Harbor Cruises, Boston, MA. More information available from US FCC via Universal Licensing System and Coast Guard Vessel Documentation Center.

Last reported at 2018-Feb-22 00:17 UTC. Time now 2018-Feb-22 05:29 UTC.
Position N 42°15' W 070°55'.

Length 35 m; draft 2.9 m.

Type: High speed craft. MMSI: 367677570.

Date/timePositionNaut miles runAvg speedWind from/ knotsBaromVisibWave heightAir tempDewpointWater temp
2018-Feb-22 00:17N 42°15' W 070°55'0 1.1
2018-Feb-21 23:56N 42°16' W 070°55'816.2
2018-Feb-21 23:26N 42°21' W 071°03'612.3
2018-Feb-21 22:59N 42°19' W 070°56'4 7.8
2018-Feb-21 22:30N 42°15' W 070°55'816.9
2018-Feb-21 22:00N 42°21' W 071°03'1 2.9
2018-Feb-21 21:30N 42°21' W 071°01'7 9.8
2018-Feb-21 20:50N 42°16' W 070°55'821.2
2018-Feb-21 20:27N 42°21' W 071°03'0 0.0
2018-Feb-21 20:00N 42°21' W 071°03'8 8.3
2018-Feb-21 19:01N 42°15' W 070°55'816.7
2018-Feb-21 18:32N 42°21' W 071°03'0 0.2
2018-Feb-21 18:05N 42°21' W 071°03'0 0.1
2018-Feb-21 14:22N 42°22' W 071°03'0 0.8
2018-Feb-21 13:49N 42°22' W 071°02'0 1.0
2018-Feb-21 13:29N 42°21' W 071°02'5 5.6
2018-Feb-21 12:33N 42°19' W 070°56'132.7
2018-Feb-21 12:30N 42°20' W 070°57'4 8.2
2018-Feb-21 11:58N 42°21' W 071°02'6 0.5
2018-Feb-20 23:49N 42°17' W 070°57'612.9
2018-Feb-20 23:21N 42°21' W 071°03'811.4
2018-Feb-20 22:37N 42°15' W 070°55'2 6.6
2018-Feb-20 22:20N 42°17' W 070°56'7 9.7
2018-Feb-20 21:40N 42°21' W 071°03'213.6
2018-Feb-20 21:30N 42°20' W 071°00'611.0
2018-Feb-20 20:55N 42°15' W 070°55'817.2
2018-Feb-20 20:26N 42°21' W 071°03'0 0.4
2018-Feb-20 20:00N 42°21' W 071°03'3 2.6
2018-Feb-20 18:42N 42°20' W 070°59'3 5.4
2018-Feb-20 18:05N 42°21' W 071°03'0 5.1
2018-Feb-20 18:00N 42°22' W 071°03'0 0.4
2018-Feb-20 17:30N 42°22' W 071°03'0 0.0
2018-Feb-20 16:59N 42°22' W 071°03'0 0.0
2018-Feb-20 16:27N 42°22' W 071°03'0 0.0
2018-Feb-20 15:56N 42°22' W 071°03'0 0.0
2018-Feb-20 15:30N 42°22' W 071°03'0 0.0
2018-Feb-20 15:00N 42°22' W 071°03'0 0.0
2018-Feb-20 14:30N 42°22' W 071°03'0 0.0
2018-Feb-20 13:58N 42°22' W 071°03'0 0.9
2018-Feb-20 13:30N 42°21' W 071°03'6 6.2
2018-Feb-20 12:33N 42°17' W 070°57'326.4
2018-Feb-20 12:26N 42°20' W 070°60'3 6.6
2018-Feb-20 12:00N 42°21' W 071°03'814.7
2018-Feb-20 11:26N 42°15' W 070°55'0 0.0
2018-Feb-20 00:09N 42°15' W 070°55'3 8.7
2018-Feb-19 23:47N 42°18' W 070°58'518.4
2018-Feb-19 23:30N 42°21' W 071°03'5 9.8
2018-Feb-19 22:57N 42°18' W 070°58'3 6.1
2018-Feb-19 22:29N 42°16' W 070°55'817.4
2018-Feb-19 22:00N 42°21' W 071°03'6 9.2
2018-Feb-19 21:22N 42°17' W 070°57'1 2.1
2018-Feb-19 20:49N 42°17' W 070°56'619.4
2018-Feb-19 20:30N 42°21' W 071°02'2 0.4
2018-Feb-19 14:37N 42°20' W 071°00'217.2
2018-Feb-19 14:29N 42°22' W 071°03'0 0.8
2018-Feb-19 14:00N 42°22' W 071°02'0 0.9
2018-Feb-19 13:30N 42°21' W 071°02'812.7
2018-Feb-19 12:52N 42°15' W 070°55'514.4
2018-Feb-19 12:30N 42°19' W 070°60'3 6.1
2018-Feb-19 12:00N 42°21' W 071°03'815.2
2018-Feb-19 11:27N 42°15' W 070°55'0 0.8
2018-Feb-19 11:00N 42°16' W 070°55'  
2018-Feb-17 00:13N 42°15' W 070°55'0 1.2
2018-Feb-16 23:58N 42°16' W 070°55'817.7
2018-Feb-16 23:30N 42°21' W 071°03'712.2
2018-Feb-16 22:54N 42°16' W 070°56'2 2.9
2018-Feb-16 22:17N 42°18' W 070°55'622.1
2018-Feb-16 22:00N 42°21' W 071°03'5 9.4
2018-Feb-16 21:26N 42°19' W 070°56'4 8.1
2018-Feb-16 20:56N 42°15' W 070°55'818.2
2018-Feb-16 20:29N 42°21' W 071°02'0 0.4
2018-Feb-16 20:00N 42°22' W 071°03'0 0.7
2018-Feb-16 19:30N 42°22' W 071°03'0 0.0
2018-Feb-16 19:00N 42°22' W 071°03'0 0.0
2018-Feb-16 18:30N 42°22' W 071°03'0 0.0
2018-Feb-16 18:00N 42°22' W 071°03'0 0.0
2018-Feb-16 17:30N 42°22' W 071°03'0 0.0
2018-Feb-16 17:00N 42°22' W 071°03'0 0.9
2018-Feb-16 16:29N 42°21' W 071°03'813.8
2018-Feb-16 15:54N 42°15' W 070°55'0 0.0
2018-Feb-16 15:29N 42°15' W 070°55'817.4
2018-Feb-16 15:00N 42°21' W 071°03'4 8.2
2018-Feb-16 14:30N 42°19' W 070°59'4 6.8
2018-Feb-16 13:57N 42°16' W 070°55'817.2
2018-Feb-16 13:30N 42°21' W 071°03'816.9
2018-Feb-16 13:00N 42°15' W 070°55'812.1
2018-Feb-16 12:21N 42°21' W 071°02'1 1.6
2018-Feb-16 12:00N 42°21' W 071°03'8 0.7
2018-Feb-16 00:41N 42°15' W 070°58'2 9.6
2018-Feb-16 00:26N 42°15' W 070°55'0 0.3
2018-Feb-15 23:58N 42°15' W 070°55'817.0
2018-Feb-15 23:28N 42°21' W 071°03'4 9.0
2018-Feb-15 23:00N 42°19' W 070°59'4 6.7
2018-Feb-15 22:27N 42°16' W 070°55'817.9
2018-Feb-15 22:00N 42°21' W 071°03'5 7.7
2018-Feb-15 21:24N 42°18' W 070°58'4 8.6
2018-Feb-15 20:58N 42°15' W 070°55'817.6
2018-Feb-15 20:30N 42°21' W 071°02'0 0.2
2018-Feb-15 18:12N 42°22' W 071°02'0 0.2
2018-Feb-15 17:48N 42°22' W 071°02'1 2.4
2018-Feb-15 17:29N 42°21' W 071°03'0 0.1
2018-Feb-15 16:54N 42°21' W 071°03'0 0.5
2018-Feb-15 16:29N 42°21' W 071°03'6 5.2
2018-Feb-15 15:18N 42°18' W 070°55'618.6
2018-Feb-15 14:58N 42°21' W 071°03'0 0.5
2018-Feb-15 14:28N 42°22' W 071°03'1 1.1
2018-Feb-15 14:00N 42°22' W 071°02'0 0.8
2018-Feb-15 13:31N 42°21' W 071°02'7 7.3
2018-Feb-15 12:37N 42°17' W 070°56'426.2
2018-Feb-15 12:28N 42°20' W 070°60'3 6.1
2018-Feb-15 12:00N 42°21' W 071°03'810.3
2018-Feb-15 11:13N 42°15' W 070°55'0 0.0
2018-Feb-15 00:12N 42°15' W 070°55'0 1.0
2018-Feb-14 23:56N 42°16' W 070°55'817.0
2018-Feb-14 23:28N 42°21' W 071°03'612.7
2018-Feb-14 22:59N 42°19' W 070°56'3 5.0
2018-Feb-14 22:26N 42°16' W 070°55'818.3
2018-Feb-14 22:00N 42°21' W 071°03'3 6.3
2018-Feb-14 21:30N 42°20' W 070°59'5 8.4
2018-Feb-14 20:52N 42°16' W 070°55'819.1
2018-Feb-14 20:27N 42°21' W 071°03'8 4.3
2018-Feb-14 18:30N 42°15' W 070°55'0 0.0
2018-Feb-14 17:57N 42°15' W 070°55'8 6.3
2018-Feb-14 16:38N 42°21' W 071°03'0 1.1
2018-Feb-14 16:29N 42°21' W 071°03'0 0.3
2018-Feb-14 15:07N 42°21' W 071°02'1 2.3
2018-Feb-14 14:48N 42°21' W 071°03'5 5.8
2018-Feb-14 13:54N 42°18' W 070°58'511.4
2018-Feb-14 13:29N 42°21' W 071°02'813.9
2018-Feb-14 12:54N 42°15' W 070°55'511.7
2018-Feb-14 12:29N 42°20' W 070°57'4 9.1
2018-Feb-14 12:00N 42°21' W 071°03'810.2
2018-Feb-14 11:12N 42°15' W 070°55'1 3.5
2018-Feb-14 10:56N 42°16' W 070°56'1 0.1
2018-Feb-14 00:13N 42°15' W 070°55'1 3.1
2018-Feb-13 23:53N 42°16' W 070°56'719.7
2018-Feb-13 23:30N 42°21' W 071°03'711.6
2018-Feb-13 22:56N 42°18' W 070°55'2 4.5
2018-Feb-13 22:28N 42°16' W 070°55'812.2
2018-Feb-13 21:49N 42°21' W 071°03'511.9
2018-Feb-13 21:27N 42°20' W 070°57'2 2.1
2018-Feb-13 20:43N 42°19' W 070°56'624.4
2018-Feb-13 20:29N 42°21' W 071°03'0 0.5
2018-Feb-13 20:00N 42°22' W 071°03'0 0.0
2018-Feb-13 17:18N 42°22' W 071°03'0 0.7
2018-Feb-13 16:42N 42°22' W 071°02'0 1.4
2018-Feb-13 16:30N 42°21' W 071°02'2 1.2
2018-Feb-13 15:08N 42°21' W 071°00'2 5.1
2018-Feb-13 14:45N 42°21' W 071°03'6 7.0
2018-Feb-13 13:54N 42°18' W 070°56'615.1
2018-Feb-13 13:30N 42°21' W 071°03'8 9.2
2018-Feb-13 12:41N 42°16' W 070°55'524.2
2018-Feb-13 12:29N 42°20' W 070°58'3 6.9
2018-Feb-13 12:00N 42°21' W 071°02'815.9
2018-Feb-13 11:30N 42°15' W 070°55'1 1.2
2018-Feb-13 11:00N 42°16' W 070°55'1 0.1
2018-Feb-13 00:18N 42°15' W 070°55'0 0.0
2018-Feb-13 00:00N 42°15' W 070°55'814.4
2018-Feb-12 23:25N 42°21' W 071°03'714.3
2018-Feb-12 22:55N 42°17' W 070°56'1 2.7
2018-Feb-12 22:29N 42°16' W 070°55'816.8
2018-Feb-12 21:59N 42°21' W 071°03'5 9.5
2018-Feb-12 21:26N 42°19' W 070°56'4 7.9
2018-Feb-12 20:55N 42°15' W 070°55'818.3
2018-Feb-12 20:28N 42°21' W 071°03'0 0.3
2018-Feb-12 20:00N 42°21' W 071°03'0 0.6
2018-Feb-12 19:23N 42°22' W 071°03'0 0.0
2018-Feb-12 19:00N 42°22' W 071°03'0 0.0
2018-Feb-12 18:30N 42°22' W 071°03'0 0.0
2018-Feb-12 17:58N 42°22' W 071°03'0 0.0
2018-Feb-12 17:29N 42°22' W 071°03'0 0.0
2018-Feb-12 16:58N 42°22' W 071°03'1 1.4
2018-Feb-12 16:29N 42°21' W 071°02'8 8.4
2018-Feb-12 15:32N 42°15' W 070°55'818.3
2018-Feb-12 15:06N 42°21' W 071°02'1 6.7
2018-Feb-12 15:01N 42°21' W 071°03'0 0.3
2018-Feb-12 14:07N 42°22' W 071°03'0 0.1
2018-Feb-12 14:00N 42°22' W 071°03'0 0.9
2018-Feb-12 13:31N 42°21' W 071°02'6 6.1
2018-Feb-12 12:35N 42°17' W 070°57'327.9
2018-Feb-12 12:30N 42°20' W 070°57'4 8.5
2018-Feb-12 12:00N 42°21' W 071°02'  

Dump ship's entire track history